Terminal Aerodrome Forecast
Issued by NWS Wilmington, OH

Current Version | Previous Version | Graphics & Text | Print | Product List | Glossary On
Versions: 1 2 3 4 5 6 7 8 9 10 11 12 13 14 15 16 17 18 19
000
FTUS41 KILN 190815 AAA
TAFILN
TAF AMD
KILN 190815Z 1908/2006 29015G25KT P6SM OVC025
     FM190900 29015G25KT P6SM VCSH OVC015
     FM191100 29015G25KT P6SM VCSH OVC009
     FM191400 34015G25KT P6SM OVC018
     FM191900 32014G24KT P6SM BKN035
     FM192100 32014KT P6SM SCT050
     FM200000 33008KT P6SM SKC=

USA.gov is the U.S. government's official web portal to all federal, state and local government web resources and services.